Time;durP1;ratioP1;P1;durP2;ratioP2;P2;SDS_P1;SDS_P2;PMS_P1;PMS_P2;Temp;Humidity;BMP_temperature;BMP_pressure;BME280_temperature;BME280_humidity;BME280_pressure;Samples;Min_cycle;Max_cycle;Signal;HPM_P1;HPM_P2
2022/10/15 00:02:06;;;;;;;21.83;19.63;;;;;;;;;;5071559;28;20266;-81
2022/10/15 00:04:31;;;;;;;20.95;18.55;;;;;;;;;;5052314;28;20056;-80
2022/10/15 00:06:56;;;;;;;22.10;19.73;;;;;;;;;;5043345;28;20017;-80
2022/10/15 00:09:22;;;;;;;22.30;19.87;;;;;;;;;;5071430;28;20012;-80
2022/10/15 00:11:47;;;;;;;26.45;21.55;;;;;;;;;;5073534;28;20283;-78
2022/10/15 00:14:12;;;;;;;24.73;21.80;;;;;;;;;;5054837;28;20401;-81
2022/10/15 00:16:37;;;;;;;22.77;20.13;;;;;;;;;;5055092;28;20840;-81
2022/10/15 00:19:03;;;;;;;21.80;19.43;;;;;;;;;;5055242;28;20073;-81
2022/10/15 00:21:28;;;;;;;22.30;18.73;;;;;;;;;;5070766;28;20263;-81
2022/10/15 00:23:54;;;;;;;23.75;18.63;;;;;;;;;;5044199;28;20325;-81
2022/10/15 00:26:20;;;;;;;24.85;19.38;;;;;;;;;;5049255;28;20052;-82
2022/10/15 00:28:46;;;;;;;21.25;19.08;;;;;;;;;;5055359;28;20077;-82
2022/10/15 00:31:12;;;;;;;21.05;18.92;;;;;;;;;;5054831;28;20020;-82
2022/10/15 00:33:37;;;;;;;20.17;18.10;;;;;;;;;;5073133;28;20020;-81
2022/10/15 00:36:07;;;;;;;22.42;19.10;;;;;;;;;;5073132;28;20368;-80
2022/10/15 00:38:33;;;;;;;28.50;20.35;;;;;;;;;;5055501;28;20028;-81
2022/10/15 00:40:58;;;;;;;27.00;22.85;;;;;;;;;;5072526;28;20017;-81
2022/10/15 00:43:41;;;;;;;24.50;21.85;;;;;;;;;;5060915;28;20028;-81
2022/10/15 00:46:14;;;;;;;24.75;19.85;;;;;;;;;;5059292;28;20761;-82
2022/10/15 00:48:39;;;;;;;26.80;22.48;;;;;;;;;;5054531;28;20024;-82
2022/10/15 00:51:05;;;;;;;30.55;26.30;;;;;;;;;;5088348;28;20020;-81
2022/10/15 00:53:30;;;;;;;28.83;25.63;;;;;;;;;;5054764;28;20024;-81
2022/10/15 00:55:56;;;;;;;29.63;25.85;;;;;;;;;;5054597;28;20016;-82
2022/10/15 00:58:27;;;;;;;33.17;27.08;;;;;;;;;;5072380;28;20024;-83
2022/10/15 01:00:53;;;;;;;33.10;24.67;;;;;;;;;;5071578;28;20099;-84
2022/10/15 01:03:18;;;;;;;29.27;24.25;;;;;;;;;;5054884;28;20556;-84
2022/10/15 01:05:45;;;;;;;29.98;26.63;;;;;;;;;;5088028;28;20025;-83
2022/10/15 01:08:11;;;;;;;33.28;28.05;;;;;;;;;;5055373;28;20081;-83
2022/10/15 01:10:45;;;;;;;30.53;26.50;;;;;;;;;;5054430;28;20021;-79
2022/10/15 01:13:17;;;;;;;29.58;26.40;;;;;;;;;;5052875;28;20275;-79
2022/10/15 01:15:47;;;;;;;32.45;28.08;;;;;;;;;;5050596;28;20020;-80
2022/10/15 01:18:23;;;;;;;30.95;27.40;;;;;;;;;;5054224;28;20024;-79
2022/10/15 01:20:52;;;;;;;30.05;26.85;;;;;;;;;;5070787;28;20021;-79
2022/10/15 01:23:26;;;;;;;33.72;26.02;;;;;;;;;;5073103;28;20040;-80
2022/10/15 01:26:03;;;;;;;28.88;25.45;;;;;;;;;;5054411;28;20024;-82
2022/10/15 01:28:41;;;;;;;29.02;25.95;;;;;;;;;;5054173;28;20033;-82
2022/10/15 01:31:20;;;;;;;33.35;24.65;;;;;;;;;;5055222;28;20109;-81
2022/10/15 01:34:00;;;;;;;33.53;25.65;;;;;;;;;;5053953;28;20020;-81
2022/10/15 01:36:38;;;;;;;32.72;28.25;;;;;;;;;;5053837;28;20028;-81
2022/10/15 01:39:15;;;;;;;34.22;25.27;;;;;;;;;;5053994;28;20121;-81
2022/10/15 01:41:46;;;;;;;27.50;24.63;;;;;;;;;;5054142;28;20013;-82
2022/10/15 01:44:19;;;;;;;26.27;23.52;;;;;;;;;;5068987;28;20027;-82
2022/10/15 01:46:54;;;;;;;28.92;24.75;;;;;;;;;;5068126;28;20032;-81
2022/10/15 01:49:21;;;;;;;32.58;27.55;;;;;;;;;;5071657;28;20016;-81
2022/10/15 01:51:47;;;;;;;29.20;25.42;;;;;;;;;;5072158;28;20078;-81
2022/10/15 01:54:16;;;;;;;27.15;24.27;;;;;;;;;;5054169;28;20440;-81
2022/10/15 01:56:48;;;;;;;27.67;24.83;;;;;;;;;;5072041;28;20099;-81
2022/10/15 01:59:14;;;;;;;28.42;24.88;;;;;;;;;;5086053;28;20040;-81
2022/10/15 02:01:41;;;;;;;27.02;24.30;;;;;;;;;;5071991;28;20048;-81
2022/10/15 02:04:16;;;;;;;27.60;24.80;;;;;;;;;;5072106;28;20032;-81
2022/10/15 02:06:43;;;;;;;29.00;25.80;;;;;;;;;;5053602;28;20028;-83
2022/10/15 02:09:20;;;;;;;34.13;26.50;;;;;;;;;;5053526;28;20020;-79
2022/10/15 02:11:54;;;;;;;35.63;25.45;;;;;;;;;;5073428;28;20093;-79
2022/10/15 02:14:28;;;;;;;30.48;24.90;;;;;;;;;;5024443;28;20131;-80
2022/10/15 02:17:07;;;;;;;28.90;25.85;;;;;;;;;;5030760;28;20020;-80
2022/10/15 02:19:40;;;;;;;28.92;25.63;;;;;;;;;;5026109;28;20026;-81
2022/10/15 02:22:05;;;;;;;29.23;26.08;;;;;;;;;;5065353;28;20032;-79
2022/10/15 02:24:36;;;;;;;28.93;25.93;;;;;;;;;;5074954;28;20021;-80
2022/10/15 02:27:02;;;;;;;34.67;29.25;;;;;;;;;;5076103;28;20278;-80
2022/10/15 02:29:30;;;;;;;31.35;27.80;;;;;;;;;;5054067;28;20073;-80
2022/10/15 02:31:56;;;;;;;35.15;30.08;;;;;;;;;;5076357;28;20029;-81
2022/10/15 02:34:24;;;;;;;38.03;30.45;;;;;;;;;;5053683;28;20158;-80
2022/10/15 02:36:49;;;;;;;31.60;27.15;;;;;;;;;;5074533;28;20032;-80
2022/10/15 02:39:17;;;;;;;36.75;31.50;;;;;;;;;;5056131;28;20029;-81
2022/10/15 02:41:43;;;;;;;39.75;31.92;;;;;;;;;;5056759;28;20016;-81
2022/10/15 02:44:08;;;;;;;39.28;31.10;;;;;;;;;;5056649;28;20486;-81
2022/10/15 02:46:34;;;;;;;33.33;29.50;;;;;;;;;;5073421;28;20077;-81
2022/10/15 02:48:59;;;;;;;32.90;29.40;;;;;;;;;;5052329;28;20279;-81
2022/10/15 02:51:24;;;;;;;35.47;30.43;;;;;;;;;;5057057;28;20290;-81
2022/10/15 02:53:49;;;;;;;36.20;30.07;;;;;;;;;;5075094;28;20767;-81
2022/10/15 02:56:15;;;;;;;41.17;36.27;;;;;;;;;;5075638;28;20653;-79
2022/10/15 02:58:40;;;;;;;42.10;32.87;;;;;;;;;;5074357;28;20799;-80
2022/10/15 03:01:05;;;;;;;37.38;32.10;;;;;;;;;;5066416;28;20271;-81
2022/10/15 03:03:30;;;;;;;38.50;33.00;;;;;;;;;;5073291;28;20054;-79
2022/10/15 03:05:55;;;;;;;38.93;32.40;;;;;;;;;;5057836;28;20761;-79
2022/10/15 03:08:21;;;;;;;38.03;33.92;;;;;;;;;;5074466;28;20599;-79
2022/10/15 03:10:46;;;;;;;37.88;33.55;;;;;;;;;;5073304;28;20025;-80
2022/10/15 03:13:12;;;;;;;40.70;36.40;;;;;;;;;;5074011;28;20063;-77
2022/10/15 03:15:37;;;;;;;36.95;33.10;;;;;;;;;;5074441;28;20063;-79
2022/10/15 03:18:02;;;;;;;39.95;33.45;;;;;;;;;;5056292;28;20017;-78
2022/10/15 03:20:28;;;;;;;39.92;33.85;;;;;;;;;;5059357;28;20151;-79
2022/10/15 03:22:53;;;;;;;42.65;33.17;;;;;;;;;;5073679;28;20039;-79
2022/10/15 03:25:18;;;;;;;40.53;32.72;;;;;;;;;;5055344;28;20077;-79
2022/10/15 03:27:43;;;;;;;38.37;32.50;;;;;;;;;;5053923;28;20644;-79
2022/10/15 03:30:09;;;;;;;42.73;34.80;;;;;;;;;;5076193;28;20728;-79
2022/10/15 03:32:34;;;;;;;34.80;30.95;;;;;;;;;;5057859;28;20305;-79
2022/10/15 03:34:59;;;;;;;38.70;32.10;;;;;;;;;;5055938;28;20067;-79
2022/10/15 03:37:25;;;;;;;35.13;30.87;;;;;;;;;;5073819;28;20336;-79
2022/10/15 03:39:50;;;;;;;38.50;31.67;;;;;;;;;;5073501;28;20329;-84
2022/10/15 03:42:15;;;;;;;37.30;29.10;;;;;;;;;;5060551;28;20004;-80
2022/10/15 03:44:40;;;;;;;34.30;30.60;;;;;;;;;;5073919;28;20324;-78
2022/10/15 03:47:05;;;;;;;38.10;30.15;;;;;;;;;;5073532;28;20270;-79
2022/10/15 03:49:31;;;;;;;33.45;28.92;;;;;;;;;;5073210;28;20017;-78
2022/10/15 03:51:56;;;;;;;31.50;28.05;;;;;;;;;;5042579;28;20020;-80
2022/10/15 03:54:22;;;;;;;33.23;27.73;;;;;;;;;;5057832;28;20513;-80
2022/10/15 03:56:47;;;;;;;29.93;26.80;;;;;;;;;;5062669;28;20669;-80
2022/10/15 03:59:12;;;;;;;32.60;27.02;;;;;;;;;;5070406;28;20312;-77
2022/10/15 04:01:37;;;;;;;31.90;26.10;;;;;;;;;;5055887;28;20009;-77
2022/10/15 04:04:03;;;;;;;33.57;27.03;;;;;;;;;;5072966;28;20278;-79
2022/10/15 04:06:28;;;;;;;42.13;27.92;;;;;;;;;;5073347;28;20278;-80
2022/10/15 04:08:53;;;;;;;30.97;24.30;;;;;;;;;;5055518;28;20043;-79
2022/10/15 04:11:19;;;;;;;28.77;24.20;;;;;;;;;;5055170;28;20273;-79
2022/10/15 04:13:47;;;;;;;33.90;26.17;;;;;;;;;;5072699;28;20035;-79
2022/10/15 04:16:12;;;;;;;28.27;25.38;;;;;;;;;;5072796;28;20016;-80
2022/10/15 04:18:38;;;;;;;34.30;26.70;;;;;;;;;;5054127;28;20490;-79
2022/10/15 04:21:03;;;;;;;33.85;26.20;;;;;;;;;;5055058;28;20763;-79
2022/10/15 04:23:28;;;;;;;30.37;27.17;;;;;;;;;;5055229;28;20356;-83
2022/10/15 04:25:57;;;;;;;31.73;26.90;;;;;;;;;;5074289;28;20628;-82
2022/10/15 04:28:22;;;;;;;34.47;28.08;;;;;;;;;;5072509;28;20471;-83
2022/10/15 04:30:48;;;;;;;32.80;28.97;;;;;;;;;;5055478;28;20024;-84
2022/10/15 04:33:13;;;;;;;30.23;27.17;;;;;;;;;;5054634;28;20294;-82
2022/10/15 04:35:38;;;;;;;32.50;27.50;;;;;;;;;;5048382;28;20016;-82
2022/10/15 04:38:03;;;;;;;30.50;27.02;;;;;;;;;;5054841;28;20298;-81
2022/10/15 04:40:29;;;;;;;40.67;29.88;;;;;;;;;;5054843;28;20019;-77
2022/10/15 04:42:54;;;;;;;39.20;28.93;;;;;;;;;;5072472;28;20024;-81
2022/10/15 04:45:19;;;;;;;38.67;28.77;;;;;;;;;;5073594;28;20634;-80
2022/10/15 04:47:44;;;;;;;33.70;27.70;;;;;;;;;;5073820;28;20629;-80
2022/10/15 04:50:10;;;;;;;38.22;30.17;;;;;;;;;;5070757;28;20663;-81
2022/10/15 04:52:35;;;;;;;35.42;28.08;;;;;;;;;;5071878;28;20364;-80
2022/10/15 04:55:02;;;;;;;41.42;29.10;;;;;;;;;;5074258;28;20021;-80
2022/10/15 04:57:27;;;;;;;36.08;29.25;;;;;;;;;;5073019;28;20017;-80
2022/10/15 04:59:52;;;;;;;43.30;30.00;;;;;;;;;;5071195;28;20371;-80
2022/10/15 05:02:18;;;;;;;37.40;29.17;;;;;;;;;;5071846;28;20021;-79
2022/10/15 05:04:43;;;;;;;35.90;28.40;;;;;;;;;;5074125;28;20463;-79
2022/10/15 05:07:08;;;;;;;30.07;26.90;;;;;;;;;;5071822;28;20663;-79
2022/10/15 05:09:34;;;;;;;33.38;26.77;;;;;;;;;;5055579;28;20729;-80
2022/10/15 05:11:59;;;;;;;33.20;27.45;;;;;;;;;;5073797;28;20090;-80
2022/10/15 05:14:24;;;;;;;35.50;29.20;;;;;;;;;;5077597;28;20445;-78
2022/10/15 05:16:50;;;;;;;35.97;28.58;;;;;;;;;;5071594;28;20082;-80
2022/10/15 05:19:15;;;;;;;40.00;26.15;;;;;;;;;;5053913;28;20063;-79
2022/10/15 05:21:41;;;;;;;37.10;29.10;;;;;;;;;;5074989;28;20027;-79
2022/10/15 05:24:06;;;;;;;34.35;28.05;;;;;;;;;;5053008;28;20073;-80
2022/10/15 05:26:31;;;;;;;33.60;26.60;;;;;;;;;;5054331;28;20016;-80
2022/10/15 05:28:57;;;;;;;38.30;28.15;;;;;;;;;;5053886;28;20529;-79
2022/10/15 05:31:23;;;;;;;36.10;28.33;;;;;;;;;;5053766;28;20068;-75
2022/10/15 05:33:49;;;;;;;30.48;27.10;;;;;;;;;;5063540;28;20036;-79
2022/10/15 05:36:16;;;;;;;43.95;30.85;;;;;;;;;;5053986;28;20044;-80
2022/10/15 05:38:45;;;;;;;42.08;28.15;;;;;;;;;;5059206;28;20012;-79
2022/10/15 05:41:10;;;;;;;37.17;28.00;;;;;;;;;;5077265;28;20367;-80
2022/10/15 05:43:36;;;;;;;39.28;29.20;;;;;;;;;;5054020;28;20025;-79
2022/10/15 05:46:01;;;;;;;33.53;28.00;;;;;;;;;;5086293;28;20063;-80
2022/10/15 05:48:26;;;;;;;37.47;29.38;;;;;;;;;;5076370;28;20017;-80
2022/10/15 05:50:52;;;;;;;33.67;28.20;;;;;;;;;;5071675;28;20474;-76
2022/10/15 05:53:17;;;;;;;36.75;28.30;;;;;;;;;;5057906;28;20115;-79
2022/10/15 05:55:42;;;;;;;35.88;29.42;;;;;;;;;;5057548;28;20020;-79
2022/10/15 05:58:07;;;;;;;36.88;30.40;;;;;;;;;;5046875;28;20019;-81
2022/10/15 06:00:33;;;;;;;40.17;31.15;;;;;;;;;;5024706;28;20132;-79
2022/10/15 06:02:58;;;;;;;36.25;30.85;;;;;;;;;;5026112;28;20043;-80
2022/10/15 06:05:24;;;;;;;44.00;33.80;;;;;;;;;;5039764;28;20123;-81
2022/10/15 06:07:49;;;;;;;36.25;30.42;;;;;;;;;;5023708;28;20274;-80
2022/10/15 06:10:14;;;;;;;39.60;30.77;;;;;;;;;;5023654;28;20093;-79
2022/10/15 06:12:41;;;;;;;44.70;30.88;;;;;;;;;;5022607;28;20254;-80
2022/10/15 06:15:07;;;;;;;42.17;29.60;;;;;;;;;;5033955;28;20913;-78
2022/10/15 06:17:32;;;;;;;37.75;27.23;;;;;;;;;;5020713;28;20017;-79
2022/10/15 06:19:57;;;;;;;36.33;26.05;;;;;;;;;;5019553;28;20013;-79
2022/10/15 06:22:23;;;;;;;34.63;25.23;;;;;;;;;;5039095;28;21668;-78
2022/10/15 06:24:48;;;;;;;34.47;25.35;;;;;;;;;;5024995;28;21069;-79
2022/10/15 06:27:13;;;;;;;34.10;23.20;;;;;;;;;;5030244;28;20020;-79
2022/10/15 06:29:39;;;;;;;28.45;21.00;;;;;;;;;;5021309;28;20119;-79
2022/10/15 06:32:04;;;;;;;24.23;19.27;;;;;;;;;;5040669;28;20235;-79
2022/10/15 06:34:29;;;;;;;25.02;19.42;;;;;;;;;;5017385;28;20020;-79
2022/10/15 06:36:54;;;;;;;23.88;17.35;;;;;;;;;;5018289;28;20032;-79
2022/10/15 06:39:20;;;;;;;26.30;17.92;;;;;;;;;;5019095;28;20087;-79
2022/10/15 06:41:45;;;;;;;22.05;16.80;;;;;;;;;;5019576;28;20849;-80
2022/10/15 06:44:10;;;;;;;20.70;15.70;;;;;;;;;;5016460;28;20020;-74
2022/10/15 06:46:35;;;;;;;21.60;15.73;;;;;;;;;;5023780;28;20867;-80
2022/10/15 06:49:01;;;;;;;18.60;15.05;;;;;;;;;;5019684;28;20020;-78
2022/10/15 06:51:26;;;;;;;18.45;14.30;;;;;;;;;;5036461;28;20078;-79
2022/10/15 06:53:51;;;;;;;18.02;13.98;;;;;;;;;;5032239;28;20020;-80
2022/10/15 06:56:16;;;;;;;20.17;14.63;;;;;;;;;;5035097;28;20024;-79
2022/10/15 06:58:42;;;;;;;22.10;14.05;;;;;;;;;;5073206;28;20535;-79
2022/10/15 07:01:08;;;;;;;19.67;12.13;;;;;;;;;;5060491;28;20024;-79
2022/10/15 07:03:34;;;;;;;15.38;11.98;;;;;;;;;;5056524;28;20025;-79
2022/10/15 07:06:00;;;;;;;20.38;13.15;;;;;;;;;;5073860;28;20009;-79
2022/10/15 07:08:26;;;;;;;13.13;11.05;;;;;;;;;;5076120;28;20070;-79
2022/10/15 07:10:51;;;;;;;30.80;12.47;;;;;;;;;;5074288;28;20020;-82
2022/10/15 07:13:16;;;;;;;19.03;12.93;;;;;;;;;;5058714;28;20274;-78
2022/10/15 07:15:43;;;;;;;14.47;11.47;;;;;;;;;;5063393;28;20309;-79
2022/10/15 07:18:08;;;;;;;15.15;12.50;;;;;;;;;;5055995;28;20278;-79
2022/10/15 07:20:34;;;;;;;16.75;11.75;;;;;;;;;;5068024;28;20032;-79
2022/10/15 07:22:59;;;;;;;14.30;11.10;;;;;;;;;;5070882;28;20020;-78
2022/10/15 07:25:25;;;;;;;12.95;10.18;;;;;;;;;;5061883;28;20024;-80
2022/10/15 07:27:50;;;;;;;15.10;10.60;;;;;;;;;;5077643;28;20095;-79
2022/10/15 07:30:16;;;;;;;14.18;9.50;;;;;;;;;;5057682;28;20086;-80
2022/10/15 07:32:42;;;;;;;12.70;9.60;;;;;;;;;;5072971;28;20489;-78
2022/10/15 07:35:07;;;;;;;11.23;9.10;;;;;;;;;;5054895;28;20016;-82
2022/10/15 07:37:33;;;;;;;12.18;9.02;;;;;;;;;;5074717;28;20028;-81
2022/10/15 07:39:58;;;;;;;16.90;8.48;;;;;;;;;;5056643;28;20024;-81
2022/10/15 07:42:23;;;;;;;10.05;7.05;;;;;;;;;;5073211;28;20017;-78
2022/10/15 07:44:48;;;;;;;11.57;7.28;;;;;;;;;;5073321;28;20051;-80
2022/10/15 07:47:14;;;;;;;10.65;7.07;;;;;;;;;;5055454;28;20020;-78
2022/10/15 07:49:39;;;;;;;9.13;6.22;;;;;;;;;;5055747;28;20390;-79
2022/10/15 07:52:04;;;;;;;8.47;5.30;;;;;;;;;;5059880;28;20028;-79
2022/10/15 07:54:31;;;;;;;6.57;4.68;;;;;;;;;;5055493;28;20267;-78
2022/10/15 07:56:57;;;;;;;10.57;4.82;;;;;;;;;;5072909;28;20052;-78
2022/10/15 07:59:22;;;;;;;6.90;4.72;;;;;;;;;;5054682;28;20043;-78
2022/10/15 08:01:47;;;;;;;7.68;3.70;;;;;;;;;;5052745;28;20032;-79
2022/10/15 08:04:12;;;;;;;6.10;3.83;;;;;;;;;;5055194;28;20443;-79
2022/10/15 08:06:38;;;;;;;5.73;3.80;;;;;;;;;;5073358;28;20704;-78
2022/10/15 08:09:03;;;;;;;5.23;3.77;;;;;;;;;;5055239;28;20633;-79
2022/10/15 08:11:29;;;;;;;4.75;3.28;;;;;;;;;;5054816;28;20623;-78
2022/10/15 08:13:54;;;;;;;13.75;2.95;;;;;;;;;;5055462;28;20486;-78
2022/10/15 08:16:19;;;;;;;4.30;2.90;;;;;;;;;;5055007;28;20012;-78
2022/10/15 08:18:44;;;;;;;3.40;2.67;;;;;;;;;;5049011;28;20371;-78
2022/10/15 08:21:10;;;;;;;3.88;2.38;;;;;;;;;;5050661;28;20031;-79
2022/10/15 08:23:35;;;;;;;3.70;2.17;;;;;;;;;;5088680;28;20044;-78
2022/10/15 08:26:01;;;;;;;3.78;1.98;;;;;;;;;;5054979;28;20017;-78
2022/10/15 08:28:27;;;;;;;3.33;1.77;;;;;;;;;;5072823;28;20035;-78
2022/10/15 08:30:52;;;;;;;3.28;2.20;;;;;;;;;;5073188;28;20525;-82
2022/10/15 08:33:17;;;;;;;3.40;1.77;;;;;;;;;;5054289;28;20042;-77
2022/10/15 08:35:42;;;;;;;3.27;1.57;;;;;;;;;;5051450;28;20267;-78
2022/10/15 08:38:09;;;;;;;4.30;1.50;;;;;;;;;;5072695;28;20271;-77
2022/10/15 08:40:34;;;;;;;3.83;1.77;;;;;;;;;;5072142;28;20024;-77
2022/10/15 08:42:59;;;;;;;2.53;1.33;;;;;;;;;;5072688;28;20097;-77
2022/10/15 08:45:28;;;;;;;2.78;1.80;;;;;;;;;;5075335;28;20016;-77
2022/10/15 08:48:02;;;;;;;5.53;2.08;;;;;;;;;;5073997;28;20031;-77
2022/10/15 08:50:49;;;;;;;3.97;2.47;;;;;;;;;;5076671;28;20157;-77
2022/10/15 08:53:17;;;;;;;5.28;2.67;;;;;;;;;;5053608;28;20036;-77
2022/10/15 08:55:44;;;;;;;4.40;2.60;;;;;;;;;;5074294;28;20093;-76
2022/10/15 08:58:15;;;;;;;6.65;2.65;;;;;;;;;;5075407;28;20086;-77
2022/10/15 09:00:56;;;;;;;6.57;2.50;;;;;;;;;;5051129;28;20466;-79
2022/10/15 09:03:22;;;;;;;4.93;3.00;;;;;;;;;;5061933;28;20024;-81
2022/10/15 09:05:47;;;;;;;10.63;3.17;;;;;;;;;;5072218;28;20021;-81
2022/10/15 09:08:22;;;;;;;7.33;3.47;;;;;;;;;;5054069;28;20274;-79
2022/10/15 09:11:01;;;;;;;5.57;3.10;;;;;;;;;;5071870;28;20099;-82
2022/10/15 09:13:32;;;;;;;4.53;2.92;;;;;;;;;;5073835;28;20059;-82
2022/10/15 09:16:24;;;;;;;5.57;3.20;;;;;;;;;;5071448;28;20097;-82
2022/10/15 09:18:52;;;;;;;4.63;2.70;;;;;;;;;;5033946;28;20039;-79
2022/10/15 09:21:19;;;;;;;4.78;2.25;;;;;;;;;;5055299;28;20024;-80
2022/10/15 09:23:44;;;;;;;4.30;2.65;;;;;;;;;;5078079;28;20077;-79
2022/10/15 09:26:12;;;;;;;5.80;2.20;;;;;;;;;;5072688;28;20020;-80
2022/10/15 09:28:39;;;;;;;3.95;1.95;;;;;;;;;;5055341;28;20103;-79
2022/10/15 09:31:07;;;;;;;3.50;1.58;;;;;;;;;;5054508;28;20031;-82
2022/10/15 09:33:37;;;;;;;5.03;1.65;;;;;;;;;;5058115;28;20031;-81
2022/10/15 09:36:15;;;;;;;4.15;1.67;;;;;;;;;;5084234;28;20036;-81
2022/10/15 09:39:00;;;;;;;5.07;1.15;;;;;;;;;;5091493;28;20021;-80
2022/10/15 09:41:44;;;;;;;4.05;0.80;;;;;;;;;;5058514;28;20173;-82
2022/10/15 09:44:12;;;;;;;1.63;0.77;;;;;;;;;;5073287;28;20138;-81
2022/10/15 09:46:45;;;;;;;5.65;0.90;;;;;;;;;;5057757;28;20035;-80
2022/10/15 09:49:17;;;;;;;1.50;0.60;;;;;;;;;;5057940;28;20028;-81
2022/10/15 09:51:49;;;;;;;1.98;0.80;;;;;;;;;;5054004;28;20025;-79
2022/10/15 09:54:38;;;;;;;3.35;0.73;;;;;;;;;;5055723;28;20104;-79
2022/10/15 09:57:07;;;;;;;2.03;0.57;;;;;;;;;;5075885;28;20021;-81
2022/10/15 09:59:32;;;;;;;2.47;0.70;;;;;;;;;;5057806;28;20028;-82
2022/10/15 10:02:02;;;;;;;2.67;0.53;;;;;;;;;;5075451;28;20008;-80
2022/10/15 10:04:28;;;;;;;1.90;0.50;;;;;;;;;;5059820;28;20275;-79
2022/10/15 10:06:59;;;;;;;0.82;0.40;;;;;;;;;;5068547;28;20025;-80
2022/10/15 10:09:32;;;;;;;10.15;0.77;;;;;;;;;;5055297;28;20035;-81
2022/10/15 10:11:59;;;;;;;1.85;0.52;;;;;;;;;;5065488;28;20017;-78
2022/10/15 10:14:29;;;;;;;1.45;0.57;;;;;;;;;;5054753;28;20139;-79
2022/10/15 10:17:27;;;;;;;1.00;0.38;;;;;;;;;;5056578;28;20109;-78
2022/10/15 10:20:01;;;;;;;1.77;0.45;;;;;;;;;;5024070;28;20032;-79
2022/10/15 10:22:27;;;;;;;1.00;0.30;;;;;;;;;;5045526;28;20017;-74
2022/10/15 10:24:52;;;;;;;1.75;0.50;;;;;;;;;;5025910;28;20020;-77
2022/10/15 10:27:20;;;;;;;1.17;0.33;;;;;;;;;;5044837;28;20024;-83
2022/10/15 10:29:53;;;;;;;2.15;0.63;;;;;;;;;;5073625;28;20352;-83
2022/10/15 10:32:20;;;;;;;1.63;0.47;;;;;;;;;;5052123;28;20103;-80
2022/10/15 10:34:45;;;;;;;2.03;0.32;;;;;;;;;;5050682;28;20067;-80
2022/10/15 10:37:11;;;;;;;0.98;0.30;;;;;;;;;;5062748;28;20456;-78
2022/10/15 10:39:37;;;;;;;1.02;0.40;;;;;;;;;;5076266;28;20070;-77
2022/10/15 10:42:02;;;;;;;1.55;0.38;;;;;;;;;;5062598;28;20443;-80
2022/10/15 10:44:31;;;;;;;0.90;0.40;;;;;;;;;;5062370;28;20029;-80
2022/10/15 10:47:03;;;;;;;1.10;0.30;;;;;;;;;;5038912;28;20434;-84
2022/10/15 10:49:32;;;;;;;4.82;0.65;;;;;;;;;;5056148;28;20019;-80
2022/10/15 10:51:58;;;;;;;0.85;0.30;;;;;;;;;;5054409;28;20052;-79
2022/10/15 10:54:23;;;;;;;1.20;0.50;;;;;;;;;;5052961;28;20423;-77
2022/10/15 10:56:49;;;;;;;2.13;0.60;;;;;;;;;;5072977;28;20024;-77
2022/10/15 10:59:16;;;;;;;2.17;0.40;;;;;;;;;;5071828;28;20024;-77
2022/10/15 11:01:42;;;;;;;2.08;0.40;;;;;;;;;;5051846;28;20012;-74
2022/10/15 11:04:11;;;;;;;0.93;0.32;;;;;;;;;;5054697;28;20036;-79
2022/10/15 11:06:36;;;;;;;0.75;0.30;;;;;;;;;;5083018;28;20013;-79
2022/10/15 11:09:11;;;;;;;0.80;0.40;;;;;;;;;;5052222;28;20729;-76
2022/10/15 11:11:36;;;;;;;;;;;;;;;;;;5086193;28;20287;-76
2022/10/15 11:14:06;;;;;;;2.05;0.60;;;;;;;;;;5087643;28;19965;-80
2022/10/15 11:16:50;;;;;;;1.20;0.47;;;;;;;;;;5050929;28;20063;-78
2022/10/15 11:19:21;;;;;;;1.35;0.50;;;;;;;;;;5073105;28;20026;-79
2022/10/15 11:22:02;;;;;;;2.20;0.57;;;;;;;;;;5055467;28;20020;-78
2022/10/15 11:24:44;;;;;;;1.55;0.50;;;;;;;;;;5068097;28;20028;-81
2022/10/15 11:27:09;;;;;;;9.68;0.70;;;;;;;;;;5040944;28;20012;-80
2022/10/15 11:29:40;;;;;;;0.90;0.35;;;;;;;;;;5053475;28;20020;-78
2022/10/15 11:32:27;;;;;;;2.08;0.60;;;;;;;;;;5070908;28;20032;-78
2022/10/15 11:35:15;;;;;;;1.52;0.47;;;;;;;;;;5044697;28;20383;-82
2022/10/15 11:37:43;;;;;;;2.58;0.68;;;;;;;;;;5073458;28;20051;-82
2022/10/15 11:40:14;;;;;;;1.52;0.65;;;;;;;;;;5056873;28;20029;-80
2022/10/15 11:42:45;;;;;;;1.48;0.68;;;;;;;;;;5054259;28;20021;-81
2022/10/15 11:45:11;;;;;;;1.25;0.65;;;;;;;;;;5060974;28;20024;-79
2022/10/15 11:47:54;;;;;;;1.80;0.60;;;;;;;;;;5073656;28;20012;-79
2022/10/15 11:50:19;;;;;;;1.23;0.60;;;;;;;;;;5082669;28;20082;-82
2022/10/15 11:52:45;;;;;;;1.83;0.63;;;;;;;;;;5051600;28;20119;-73
2022/10/15 11:55:12;;;;;;;1.53;0.50;;;;;;;;;;5039777;28;20827;-77
2022/10/15 11:57:39;;;;;;;3.70;0.93;;;;;;;;;;5048559;28;20851;-78
2022/10/15 12:00:23;;;;;;;1.15;0.63;;;;;;;;;;5013760;28;20109;-80
2022/10/15 12:02:48;;;;;;;1.80;0.30;;;;;;;;;;5038096;28;20024;-78
2022/10/15 12:05:18;;;;;;;2.53;0.45;;;;;;;;;;5017857;28;20855;-78
2022/10/15 12:07:46;;;;;;;1.48;0.40;;;;;;;;;;5007909;28;20016;-78
2022/10/15 12:10:11;;;;;;;2.08;0.65;;;;;;;;;;5033416;28;20867;-81
2022/10/15 12:12:48;;;;;;;2.33;1.07;;;;;;;;;;5014522;28;20043;-77
2022/10/15 12:15:29;;;;;;;1.67;0.60;;;;;;;;;;5013871;28;20263;-78
2022/10/15 12:18:00;;;;;;;2.22;0.70;;;;;;;;;;5009007;28;20024;-78
2022/10/15 12:20:26;;;;;;;2.60;0.43;;;;;;;;;;5034478;28;20915;-80
2022/10/15 12:22:53;;;;;;;2.25;0.80;;;;;;;;;;5019839;28;20013;-82
2022/10/15 12:25:34;;;;;;;1.48;0.70;;;;;;;;;;5019453;28;20032;-84
2022/10/15 12:28:01;;;;;;;1.98;0.82;;;;;;;;;;5019268;28;20144;-82
2022/10/15 12:30:28;;;;;;;2.08;0.60;;;;;;;;;;5041094;28;20866;-82
2022/10/15 12:32:54;;;;;;;1.70;0.73;;;;;;;;;;5054914;28;20113;-80
2022/10/15 12:35:22;;;;;;;2.53;1.10;;;;;;;;;;5015614;28;20863;-80
2022/10/15 12:37:48;;;;;;;1.80;0.75;;;;;;;;;;5019970;28;20032;-81
2022/10/15 12:40:19;;;;;;;5.03;1.42;;;;;;;;;;5011314;28;20043;-83
2022/10/15 12:42:48;;;;;;;2.10;0.93;;;;;;;;;;5056381;28;20023;-83
2022/10/15 12:45:25;;;;;;;2.85;1.00;;;;;;;;;;5014495;28;20016;-83
2022/10/15 12:48:16;;;;;;;2.35;0.93;;;;;;;;;;5036693;28;20021;-79
2022/10/15 12:50:42;;;;;;;2.95;1.25;;;;;;;;;;5014485;28;20032;-77
2022/10/15 12:53:27;;;;;;;2.95;1.20;;;;;;;;;;5015028;28;20760;-77
2022/10/15 12:56:12;;;;;;;3.67;1.10;;;;;;;;;;5014632;28;20020;-75
2022/10/15 12:58:51;;;;;;;6.88;1.65;;;;;;;;;;5043596;28;20882;-70
2022/10/15 13:01:19;;;;;;;2.78;1.38;;;;;;;;;;5018033;28;20031;-72
2022/10/15 13:03:48;;;;;;;4.25;1.90;;;;;;;;;;5011452;28;20858;-72
2022/10/15 13:06:19;;;;;;;5.05;1.88;;;;;;;;;;5011351;28;20020;-73
2022/10/15 13:08:46;;;;;;;3.58;1.70;;;;;;;;;;5003569;28;20067;-73
2022/10/15 13:11:21;;;;;;;3.97;1.83;;;;;;;;;;5030375;28;20025;-74
2022/10/15 13:13:48;;;;;;;5.28;2.03;;;;;;;;;;5029620;28;20052;-75
2022/10/15 13:16:13;;;;;;;5.03;2.60;;;;;;;;;;5031718;28;20144;-75
2022/10/15 13:18:40;;;;;;;17.98;3.78;;;;;;;;;;5013978;28;20021;-79
2022/10/15 13:21:05;;;;;;;9.90;3.42;;;;;;;;;;5011969;28;20127;-76
2022/10/15 13:23:32;;;;;;;6.30;2.60;;;;;;;;;;5022879;28;20122;-77
2022/10/15 13:26:10;;;;;;;4.93;2.03;;;;;;;;;;5015987;28;20028;-78
2022/10/15 13:28:37;;;;;;;4.75;2.65;;;;;;;;;;4998353;28;20025;-80
2022/10/15 13:31:05;;;;;;;7.32;2.58;;;;;;;;;;5006792;28;20070;-82
2022/10/15 13:33:30;;;;;;;4.18;2.10;;;;;;;;;;5035688;28;20319;-81
2022/10/15 13:36:03;;;;;;;4.75;1.63;;;;;;;;;;5015777;28;20477;-82
2022/10/15 13:38:29;;;;;;;2.97;1.67;;;;;;;;;;5054829;28;20012;-71
2022/10/15 13:40:54;;;;;;;2.78;1.80;;;;;;;;;;5077236;28;20039;-75
2022/10/15 13:43:21;;;;;;;3.45;1.60;;;;;;;;;;5044470;28;21596;-76
2022/10/15 13:45:52;;;;;;;4.70;2.17;;;;;;;;;;5044006;28;20023;-77
2022/10/15 13:48:22;;;;;;;6.03;2.45;;;;;;;;;;5071070;28;20023;-75
2022/10/15 13:51:07;;;;;;;2.97;1.77;;;;;;;;;;5052827;28;20370;-80
2022/10/15 13:53:34;;;;;;;3.67;1.95;;;;;;;;;;5075129;28;20503;-74
2022/10/15 13:56:00;;;;;;;5.32;2.30;;;;;;;;;;5052630;28;20066;-78
2022/10/15 13:58:35;;;;;;;7.30;2.17;;;;;;;;;;5037262;28;20095;-78
2022/10/15 14:01:08;;;;;;;10.00;2.75;;;;;;;;;;5058877;28;20022;-77
2022/10/15 14:03:35;;;;;;;5.07;2.60;;;;;;;;;;5071120;28;20017;-77
2022/10/15 14:06:18;;;;;;;8.18;2.63;;;;;;;;;;5059126;28;20100;-76
2022/10/15 14:08:44;;;;;;;3.70;2.50;;;;;;;;;;5042816;28;20118;-78
2022/10/15 14:11:11;;;;;;;3.42;1.85;;;;;;;;;;5065829;28;20048;-76
2022/10/15 14:13:44;;;;;;;5.03;2.72;;;;;;;;;;5086960;28;20016;-75
2022/10/15 14:16:10;;;;;;;6.00;2.47;;;;;;;;;;5057901;28;20028;-75
2022/10/15 14:18:36;;;;;;;3.53;1.90;;;;;;;;;;5071503;28;20489;-77
2022/10/15 14:21:02;;;;;;;5.05;2.38;;;;;;;;;;5074553;28;20032;-77
2022/10/15 14:23:27;;;;;;;2.83;1.52;;;;;;;;;;5075021;28;20085;-73
2022/10/15 14:26:00;;;;;;;3.30;1.92;;;;;;;;;;5056767;28;20012;-73
2022/10/15 14:28:26;;;;;;;2.85;1.42;;;;;;;;;;5071384;28;20032;-73
2022/10/15 14:30:52;;;;;;;5.05;2.13;;;;;;;;;;5071890;28;20020;-74
2022/10/15 14:33:53;;;;;;;4.00;1.92;;;;;;;;;;5056297;28;20486;-73
2022/10/15 14:36:18;;;;;;;6.47;2.13;;;;;;;;;;5002420;28;20403;-67